createdAt,value
2019-05-02T00:00:50.253Z,82.52
2019-05-02T00:03:19.720Z,82.36
2019-05-02T00:05:49.425Z,82.69
2019-05-02T00:08:19.833Z,82.46
2019-05-02T00:10:50.338Z,82.41
2019-05-02T00:13:20.500Z,82.64
2019-05-02T00:15:51.040Z,82.85
2019-05-02T00:18:22.221Z,82.68
2019-05-02T00:20:51.974Z,82.76
2019-05-02T00:23:22.946Z,82.70
2019-05-02T00:25:54.303Z,82.65
2019-05-02T00:28:23.964Z,82.35
2019-05-02T00:30:53.561Z,82.58
2019-05-02T00:33:22.996Z,82.24
2019-05-02T00:35:52.421Z,82.11
2019-05-02T00:38:21.871Z,82.46
2019-05-02T00:40:51.481Z,82.80
2019-05-02T00:43:20.951Z,83.10
2019-05-02T00:45:50.457Z,83.08
2019-05-02T00:48:24.405Z,82.90
2019-05-02T00:50:53.868Z,82.73
2019-05-02T00:53:23.333Z,82.78
2019-05-02T00:55:52.740Z,82.52
2019-05-02T00:58:22.271Z,82.36
2019-05-02T01:00:54.914Z,82.33
2019-05-02T01:03:25.969Z,82.61
2019-05-02T01:05:55.591Z,82.32
2019-05-02T01:08:26.409Z,82.57
2019-05-02T01:10:56.770Z,82.68
2019-05-02T01:13:27.066Z,82.76
2019-05-02T01:15:56.521Z,82.92
2019-05-02T01:18:25.920Z,82.78
2019-05-02T01:20:58.057Z,82.50
2019-05-02T01:23:29.552Z,82.35
2019-05-02T01:25:59.129Z,82.22
2019-05-02T01:28:49.164Z,82.78
2019-05-02T01:31:20.288Z,82.96
2019-05-02T01:33:51.454Z,83.04
2019-05-02T01:36:22.619Z,82.88
2019-05-02T01:38:52.479Z,82.63
2019-05-02T01:41:23.911Z,82.71
2019-05-02T01:43:55.007Z,83.26
2019-05-02T01:46:24.291Z,83.22
2019-05-02T01:48:53.695Z,83.26
2019-05-02T01:51:23.231Z,83.27
2019-05-02T01:53:54.252Z,83.10
2019-05-02T01:56:28.659Z,83.07
2019-05-02T01:58:57.720Z,83.47
2019-05-02T02:01:27.171Z,83.44
2019-05-02T02:03:56.577Z,83.92
2019-05-02T02:06:26.004Z,83.82
2019-05-02T02:08:55.668Z,83.73
2019-05-02T02:11:28.318Z,83.33
2019-05-02T02:13:56.477Z,83.11
2019-05-02T02:16:26.174Z,83.18
2019-05-02T02:18:59.126Z,83.27
2019-05-02T02:21:32.755Z,83.20
2019-05-02T02:24:13.160Z,83.17
2019-05-02T02:26:43.627Z,83.42
2019-05-02T02:29:13.976Z,83.53
2019-05-02T02:31:46.446Z,83.46
2019-05-02T02:34:14.572Z,83.47
2019-05-02T02:36:44.012Z,83.42
2019-05-02T02:39:16.809Z,83.49
2019-05-02T02:41:45.492Z,83.74
2019-05-02T02:44:17.930Z,83.86
2019-05-02T02:46:49.334Z,83.77
2019-05-02T02:49:21.681Z,83.77
2019-05-02T02:51:50.166Z,84.26
2019-05-02T02:54:19.706Z,84.14
2019-05-02T02:56:49.172Z,84.27
2019-05-02T02:59:26.405Z,84.20
2019-05-02T03:01:49.898Z,84.44
2019-05-02T03:04:19.504Z,84.67
2019-05-02T03:06:49.478Z,84.54
2019-05-02T03:09:25.938Z,84.34
2019-05-02T03:12:02.229Z,84.47
2019-05-02T03:14:31.861Z,84.54
2019-05-02T03:17:01.269Z,84.29
2019-05-02T03:19:30.900Z,84.36
2019-05-02T03:22:01.481Z,84.07
2019-05-02T03:24:36.821Z,83.43
2019-05-02T03:27:03.037Z,83.78
2019-05-02T03:29:41.387Z,83.83
2019-05-02T03:32:14.354Z,84.51
2019-05-02T03:34:47.205Z,84.58
2019-05-02T03:37:10.416Z,84.81
2019-05-02T03:39:38.328Z,84.85
2019-05-02T03:42:07.802Z,84.88
2019-05-02T03:44:37.461Z,84.66
2019-05-02T03:47:06.856Z,84.66
2019-05-02T03:49:40.910Z,84.56
2019-05-02T03:52:07.529Z,84.63
2019-05-02T03:54:48.644Z,84.26
2019-05-02T03:57:08.230Z,84.18
2019-05-02T03:59:39.386Z,83.70
2019-05-02T04:02:14.069Z,83.65
2019-05-02T04:04:41.022Z,84.23
2019-05-02T04:07:10.858Z,84.02
2019-05-02T04:09:42.533Z,83.98
2019-05-02T04:12:19.084Z,84.27
2019-05-02T04:14:43.716Z,84.36
2019-05-02T04:17:13.412Z,83.95
2019-05-02T04:19:43.691Z,83.86
2019-05-02T04:22:15.532Z,83.75
2019-05-02T04:24:54.655Z,83.68
2019-05-02T04:27:16.976Z,83.43
2019-05-02T04:29:46.661Z,83.59
2019-05-02T04:32:16.066Z,83.21
2019-05-02T04:34:49.128Z,83.32
2019-05-02T04:37:17.569Z,83.32
2019-05-02T04:39:49.149Z,83.04
2019-05-02T04:42:22.088Z,82.65
2019-05-02T04:45:12.873Z,82.65
2019-05-02T04:47:21.768Z,82.91
2019-05-02T04:49:52.213Z,82.88
2019-05-02T04:52:21.799Z,82.68
2019-05-02T04:54:51.241Z,82.97
2019-05-02T04:57:26.200Z,82.51
2019-05-02T05:00:02.385Z,82.42
2019-05-02T05:02:34.629Z,82.15
2019-05-02T05:04:54.064Z,81.90
2019-05-02T05:07:23.821Z,81.42
2019-05-02T05:09:58.088Z,81.50
2019-05-02T05:12:24.436Z,81.44
2019-05-02T05:14:53.975Z,81.85
2019-05-02T05:17:25.189Z,81.28
2019-05-02T05:19:54.799Z,81.63
2019-05-02T05:22:24.203Z,81.57
2019-05-02T05:24:55.295Z,81.35
2019-05-02T05:27:24.786Z,81.24
2019-05-02T05:29:59.561Z,81.26
2019-05-02T05:32:25.374Z,81.09
2019-05-02T05:34:54.831Z,80.58
2019-05-02T05:37:24.402Z,81.29
2019-05-02T05:39:53.847Z,80.87
2019-05-02T05:42:30.105Z,81.10
2019-05-02T05:44:54.478Z,81.23
2019-05-02T05:47:24.102Z,81.30
2019-05-02T05:49:57.676Z,81.54
2019-05-02T05:52:24.721Z,81.46
2019-05-02T05:54:54.893Z,81.82
2019-05-02T05:57:24.333Z,81.98
2019-05-02T05:59:53.751Z,81.92
2019-05-02T06:02:23.204Z,82.04
2019-05-02T06:04:55.199Z,81.68
2019-05-02T06:07:24.308Z,81.07
2019-05-02T06:09:53.831Z,80.88
2019-05-02T06:12:26.095Z,80.75
2019-05-02T06:14:56.245Z,81.95
2019-05-02T06:17:28.657Z,81.33
2019-05-02T06:19:56.930Z,81.33
2019-05-02T06:22:26.433Z,80.97
2019-05-02T06:24:56.103Z,80.97
2019-05-02T06:27:30.253Z,82.05
2019-05-02T06:29:57.550Z,81.76
2019-05-02T06:32:27.059Z,81.21
2019-05-02T06:34:56.505Z,80.98
2019-05-02T06:37:27.450Z,81.38
2019-05-02T06:39:56.924Z,80.46
2019-05-02T06:42:27.596Z,81.26
2019-05-02T06:44:59.861Z,80.20
2019-05-02T06:47:28.922Z,80.11
2019-05-02T06:50:01.072Z,80.58
2019-05-02T06:52:32.842Z,80.53
2019-05-02T06:55:02.189Z,80.70
2019-05-02T06:57:31.767Z,80.71
2019-05-02T07:00:01.203Z,80.32
2019-05-02T07:02:33.533Z,80.22
2019-05-02T07:05:02.022Z,80.07
2019-05-02T07:07:36.571Z,80.04
2019-05-02T07:10:02.734Z,79.64
2019-05-02T07:12:32.238Z,79.12
2019-05-02T07:15:03.791Z,79.38
2019-05-02T07:17:46.561Z,78.19
2019-05-02T07:20:16.298Z,78.87
2019-05-02T07:22:45.880Z,77.09
2019-05-02T07:25:18.275Z,76.21
2019-05-02T07:27:47.805Z,74.72
2019-05-02T07:30:18.254Z,74.23
2019-05-02T07:32:47.765Z,72.85
2019-05-02T07:35:19.071Z,71.38
2019-05-02T07:37:50.045Z,71.91
2019-05-02T07:40:20.293Z,72.43
2019-05-02T07:42:49.806Z,72.50
2019-05-02T07:45:19.767Z,71.66
2019-05-02T07:47:49.379Z,72.48
2019-05-02T07:50:19.060Z,71.76
2019-05-02T07:52:48.491Z,71.58
2019-05-02T07:55:17.923Z,71.18
2019-05-02T07:57:47.806Z,69.71
2019-05-02T08:00:19.349Z,69.02
2019-05-02T08:02:48.858Z,66.56
2019-05-02T08:05:21.495Z,64.79
2019-05-02T08:07:53.273Z,65.00
2019-05-02T08:10:26.244Z,64.26
2019-05-02T08:12:55.930Z,63.01
2019-05-02T08:15:25.519Z,63.65
2019-05-02T08:17:55.241Z,64.36
2019-05-02T08:20:24.915Z,64.99
2019-05-02T08:22:54.358Z,65.82
2019-05-02T08:25:23.866Z,65.92
2019-05-02T08:27:57.703Z,65.14
2019-05-02T08:30:28.863Z,67.88
2019-05-02T08:32:58.319Z,67.67
2019-05-02T08:35:28.410Z,67.58
2019-05-02T08:37:58.632Z,68.46
2019-05-02T08:40:28.153Z,68.70
2019-05-02T08:42:57.601Z,70.23
2019-05-02T08:45:27.116Z,70.18
2019-05-02T08:48:00.274Z,71.69
2019-05-02T08:50:31.935Z,72.23
2019-05-02T08:53:00.490Z,71.57
2019-05-02T08:55:30.095Z,73.15
2019-05-02T08:57:59.790Z,72.31
2019-05-02T09:00:32.220Z,71.59
2019-05-02T09:03:02.759Z,71.71
2019-05-02T09:05:31.545Z,69.62
2019-05-02T09:08:00.964Z,68.20
2019-05-02T09:10:30.885Z,68.30
2019-05-02T09:13:02.532Z,67.91
2019-05-02T09:15:32.621Z,69.01
2019-05-02T09:18:02.977Z,67.58
2019-05-02T09:20:32.543Z,69.04
2019-05-02T09:23:02.069Z,68.67
2019-05-02T09:25:32.397Z,70.90
2019-05-02T09:28:03.689Z,70.56
2019-05-02T09:30:33.148Z,71.34
2019-05-02T09:33:06.602Z,73.37
2019-05-02T09:35:33.940Z,73.37
2019-05-02T09:38:03.601Z,75.27
2019-05-02T09:40:33.234Z,75.28
2019-05-02T09:43:04.803Z,74.11
2019-05-02T09:45:37.394Z,76.39
2019-05-02T09:48:08.100Z,74.86
2019-05-02T09:50:38.620Z,73.47
2019-05-02T09:53:13.049Z,72.30
2019-05-02T09:55:42.309Z,73.44
2019-05-02T09:58:18.787Z,72.89
2019-05-02T10:00:46.253Z,71.99
2019-05-02T10:03:16.718Z,73.42
2019-05-02T10:05:46.269Z,73.40
2019-05-02T10:08:16.030Z,73.58
2019-05-02T10:10:46.174Z,74.33
2019-05-02T10:13:16.067Z,73.35
2019-05-02T10:15:46.095Z,72.99
2019-05-02T10:18:19.631Z,74.13
2019-05-02T10:20:46.836Z,73.81
2019-05-02T10:23:19.503Z,72.83
2019-05-02T10:25:47.555Z,72.36
2019-05-02T10:28:17.025Z,74.46
2019-05-02T10:30:47.340Z,74.52
2019-05-02T10:33:18.939Z,72.25
2019-05-02T10:35:49.861Z,72.12
2019-05-02T10:38:22.751Z,72.67
2019-05-02T10:40:54.713Z,71.10
2019-05-02T10:43:25.149Z,69.27
2019-05-02T10:45:56.633Z,70.75
2019-05-02T10:48:28.693Z,71.75
2019-05-02T10:51:09.448Z,71.55
2019-05-02T10:53:38.914Z,71.17
2019-05-02T10:56:08.363Z,70.48
2019-05-02T10:58:39.244Z,69.06
2019-05-02T11:01:09.967Z,67.84
2019-05-02T11:03:43.738Z,68.60
2019-05-02T11:06:12.640Z,68.61
2019-05-02T11:08:45.960Z,68.94
2019-05-02T11:11:13.430Z,68.34
2019-05-02T11:14:05.689Z,68.37
2019-05-02T11:16:36.491Z,67.72
2019-05-02T11:19:07.591Z,66.85
2019-05-02T11:21:37.170Z,68.05
2019-05-02T11:24:06.621Z,68.13
2019-05-02T11:26:37.684Z,68.35
2019-05-02T11:29:07.135Z,68.41
2019-05-02T11:31:36.678Z,69.47
2019-05-02T11:34:06.129Z,68.75
2019-05-02T11:36:35.817Z,67.25
2019-05-02T11:39:16.525Z,66.94
2019-05-02T11:41:38.263Z,65.79
2019-05-02T11:44:07.931Z,64.99
2019-05-02T11:46:41.627Z,66.32
2019-05-02T11:49:08.503Z,65.37
2019-05-02T11:51:38.041Z,63.23
2019-05-02T11:54:09.475Z,63.63
2019-05-02T11:56:41.205Z,64.45
2019-05-02T11:59:14.433Z,66.09
2019-05-02T12:01:56.533Z,67.35
2019-05-02T12:04:16.901Z,67.34
2019-05-02T12:06:49.901Z,66.04
2019-05-02T12:09:17.460Z,66.58
2019-05-02T12:11:47.438Z,63.47
2019-05-02T12:14:18.025Z,64.01
2019-05-02T12:16:47.487Z,65.33
2019-05-02T12:19:17.069Z,66.22
2019-05-02T12:21:55.074Z,66.88
2019-05-02T12:24:24.467Z,67.34
2019-05-02T12:26:54.039Z,68.28
2019-05-02T12:29:23.455Z,66.83
2019-05-02T12:31:56.371Z,66.52
2019-05-02T12:34:24.077Z,64.97
2019-05-02T12:36:53.541Z,64.41
2019-05-02T12:39:22.951Z,64.32
2019-05-02T12:41:53.625Z,64.54
2019-05-02T12:44:23.663Z,64.27
2019-05-02T12:46:53.174Z,65.26
2019-05-02T12:49:27.665Z,65.12
2019-05-02T12:51:53.745Z,63.01
2019-05-02T12:54:23.238Z,61.54
2019-05-02T12:56:52.990Z,59.72
2019-05-02T12:59:22.686Z,60.33
2019-05-02T13:01:52.292Z,59.83
2019-05-02T13:04:22.939Z,57.02
2019-05-02T13:06:53.043Z,56.91
2019-05-02T13:09:23.352Z,59.34
2019-05-02T13:11:54.888Z,59.45
2019-05-02T13:14:26.057Z,57.99
2019-05-02T13:17:01.278Z,54.79
2019-05-02T13:19:38.160Z,52.04
2019-05-02T13:22:09.641Z,51.98
2019-05-02T13:24:42.323Z,56.04
2019-05-02T13:27:14.960Z,56.27
2019-05-02T13:29:44.645Z,62.05
2019-05-02T13:32:18.753Z,63.08
2019-05-02T13:34:58.172Z,62.56
2019-05-02T13:37:27.622Z,61.66
2019-05-02T13:40:02.702Z,59.69
2019-05-02T13:42:33.698Z,60.02
2019-05-02T13:45:21.968Z,62.12
2019-05-02T13:47:52.997Z,61.57
2019-05-02T13:50:22.689Z,59.39
2019-05-02T13:52:57.731Z,62.71
2019-05-02T13:55:24.876Z,63.45
2019-05-02T13:57:54.439Z,61.92
2019-05-02T14:00:25.857Z,62.46
2019-05-02T14:02:55.656Z,63.24
2019-05-02T14:05:25.129Z,63.10
2019-05-02T14:07:57.243Z,57.98
2019-05-02T14:10:38.573Z,59.71
2019-05-02T14:13:03.437Z,64.21
2019-05-02T14:15:34.516Z,64.54
2019-05-02T14:18:04.144Z,64.73
2019-05-02T14:20:33.667Z,63.90
2019-05-02T14:23:03.175Z,63.71
2019-05-02T14:25:32.638Z,62.10
2019-05-02T14:28:02.903Z,63.31
2019-05-02T14:30:39.398Z,62.44
2019-05-02T14:33:05.727Z,61.54
2019-05-02T14:35:36.785Z,58.28
2019-05-02T14:38:13.657Z,59.88
2019-05-02T14:40:52.056Z,56.46
2019-05-02T14:43:44.558Z,58.43
2019-05-02T14:46:12.611Z,59.11
2019-05-02T14:48:45.222Z,58.95
2019-05-02T14:51:16.623Z,60.75
2019-05-02T14:53:48.295Z,62.76
2019-05-02T14:56:25.623Z,64.67
2019-05-02T14:58:55.092Z,65.18
2019-05-02T15:01:26.070Z,64.77
2019-05-02T15:03:58.419Z,62.78
2019-05-02T15:06:27.200Z,60.79
2019-05-02T15:08:56.829Z,60.89
2019-05-02T15:11:30.920Z,61.03
2019-05-02T15:13:57.415Z,67.48
2019-05-02T15:16:39.634Z,70.19
2019-05-02T15:18:58.114Z,73.48
2019-05-02T15:21:29.157Z,73.92
2019-05-02T15:23:58.590Z,73.81
2019-05-02T15:26:31.287Z,73.67
2019-05-02T15:28:59.123Z,72.47
2019-05-02T15:31:33.726Z,70.58
2019-05-02T15:34:05.191Z,68.82
2019-05-02T15:36:37.118Z,66.25
2019-05-02T15:41:44.904Z,64.46
2019-05-02T15:44:12.862Z,65.66
2019-05-02T15:46:42.548Z,62.75
2019-05-02T15:49:12.401Z,60.60
2019-05-02T15:51:43.660Z,60.10
2019-05-02T15:54:13.263Z,63.24
2019-05-02T15:57:00.431Z,64.92
2019-05-02T15:59:37.507Z,64.58
2019-05-02T16:02:07.687Z,65.08
2019-05-02T16:04:41.836Z,66.34
2019-05-02T16:07:12.185Z,65.19
2019-05-02T16:09:42.077Z,67.12
2019-05-02T16:12:12.248Z,66.90
2019-05-02T16:14:42.612Z,66.88
2019-05-02T16:17:12.594Z,67.42
2019-05-02T16:19:46.718Z,67.21
2019-05-02T16:22:17.157Z,67.95
2019-05-02T16:24:48.720Z,67.77
2019-05-02T16:27:21.847Z,69.24
2019-05-02T16:29:49.155Z,69.54
2019-05-02T16:32:23.205Z,70.63
2019-05-02T16:34:54.985Z,69.71
2019-05-02T16:37:24.835Z,69.51
2019-05-02T16:39:54.300Z,70.97
2019-05-02T16:42:23.689Z,70.95
2019-05-02T16:44:54.884Z,72.87
2019-05-02T16:47:24.496Z,73.89
2019-05-02T16:49:56.465Z,74.23
2019-05-02T16:52:25.408Z,75.26
2019-05-02T16:54:55.440Z,75.44
2019-05-02T16:57:24.853Z,75.34
2019-05-02T17:00:01.528Z,74.90
2019-05-02T17:02:25.603Z,75.25
2019-05-02T17:04:55.090Z,76.52
2019-05-02T17:07:26.140Z,78.10
2019-05-02T17:10:17.629Z,79.38
2019-05-02T17:12:47.215Z,81.09
2019-05-02T17:15:36.325Z,81.73
2019-05-02T17:18:12.767Z,81.69
2019-05-02T17:20:38.056Z,82.39
2019-05-02T17:23:07.920Z,81.56
2019-05-02T17:25:38.901Z,83.03
2019-05-02T17:28:10.540Z,83.01
2019-05-02T17:30:42.537Z,82.41
2019-05-02T17:33:12.791Z,82.38
2019-05-02T17:35:49.616Z,83.22
2019-05-02T17:38:13.137Z,83.43
2019-05-02T17:40:42.553Z,82.39
2019-05-02T17:43:12.192Z,82.28
2019-05-02T17:45:41.679Z,76.70
2019-05-02T17:48:16.623Z,76.70
2019-05-02T17:50:49.470Z,77.60
2019-05-02T17:53:17.842Z,77.09
2019-05-02T17:55:48.008Z,76.84
2019-05-02T17:58:17.454Z,78.50
2019-05-02T18:00:54.468Z,78.41
2019-05-02T18:03:24.268Z,79.86
2019-05-02T18:05:53.483Z,79.57
2019-05-02T18:08:23.041Z,79.03
2019-05-02T18:10:58.522Z,79.43
2019-05-02T18:13:23.812Z,78.83
2019-05-02T18:15:53.572Z,78.37
2019-05-02T18:18:23.093Z,78.19
2019-05-02T18:20:53.011Z,78.43
2019-05-02T18:23:25.861Z,77.34
2019-05-02T18:25:57.435Z,76.86
2019-05-02T18:28:26.445Z,76.55
2019-05-02T18:30:57.205Z,77.30
2019-05-02T18:33:27.166Z,77.84
2019-05-02T18:35:56.666Z,77.84
2019-05-02T18:38:26.241Z,77.94
2019-05-02T18:41:00.438Z,77.03
2019-05-02T18:43:27.227Z,77.48
2019-05-02T18:45:58.158Z,78.19
2019-05-02T18:48:27.881Z,78.03
2019-05-02T18:50:57.398Z,79.08
2019-05-02T18:53:27.474Z,79.11
2019-05-02T18:56:01.597Z,78.06
2019-05-02T18:58:28.198Z,76.77
2019-05-02T19:00:59.223Z,78.12
2019-05-02T19:03:28.698Z,78.93
2019-05-02T19:05:58.498Z,79.38
2019-05-02T19:08:33.666Z,79.27
2019-05-02T19:11:08.983Z,76.30
2019-05-02T19:13:37.546Z,76.19
2019-05-02T19:16:04.541Z,75.58
2019-05-02T19:18:34.186Z,76.12
2019-05-02T19:21:04.850Z,76.40
2019-05-02T19:23:35.498Z,76.95
2019-05-02T19:26:10.019Z,77.13
2019-05-02T19:28:45.193Z,76.94
2019-05-02T19:31:14.768Z,77.44
2019-05-02T19:33:44.261Z,77.63
2019-05-02T19:36:16.188Z,77.36
2019-05-02T19:38:45.814Z,77.09
2019-05-02T19:41:15.702Z,76.81
2019-05-02T19:43:49.286Z,76.67
2019-05-02T19:46:16.999Z,77.61
2019-05-02T19:48:46.454Z,77.02
2019-05-02T19:51:18.503Z,77.26
2019-05-02T19:53:51.681Z,77.51
2019-05-02T19:56:18.360Z,76.78
2019-05-02T19:58:47.928Z,76.57
2019-05-02T20:01:22.283Z,75.38
2019-05-02T20:03:48.886Z,74.61
2019-05-02T20:06:18.410Z,73.79
2019-05-02T20:08:47.945Z,73.01
2019-05-02T20:11:18.145Z,71.24
2019-05-02T20:13:47.604Z,71.52
2019-05-02T20:16:22.494Z,71.69
2019-05-02T20:18:52.620Z,71.73
2019-05-02T20:21:27.913Z,72.03
2019-05-02T20:23:57.565Z,72.63
2019-05-02T20:26:27.070Z,72.86
2019-05-02T20:28:56.472Z,73.56
2019-05-02T20:31:25.935Z,72.40
2019-05-02T20:33:56.867Z,73.12
2019-05-02T20:36:27.888Z,72.89
2019-05-02T20:38:57.622Z,74.33
2019-05-02T20:41:28.835Z,74.55
2019-05-02T20:43:58.281Z,76.88
2019-05-02T20:46:27.753Z,76.58
2019-05-02T20:48:57.340Z,77.32
2019-05-02T20:51:26.809Z,76.60
2019-05-02T20:53:56.431Z,77.33
2019-05-02T20:56:25.854Z,77.55
2019-05-02T20:58:56.906Z,77.64
2019-05-02T21:01:26.468Z,77.71
2019-05-02T21:03:56.093Z,76.12
2019-05-02T21:06:40.917Z,75.41
2019-05-02T21:09:07.869Z,73.12
2019-05-02T21:11:37.597Z,71.86
2019-05-02T21:14:07.208Z,72.19
2019-05-02T21:16:37.010Z,71.91
2019-05-02T21:19:06.600Z,71.11
2019-05-02T21:21:40.186Z,71.41
2019-05-02T21:24:09.043Z,72.31
2019-05-02T21:26:38.505Z,71.87
2019-05-02T21:29:07.937Z,72.28
2019-05-02T21:31:37.581Z,72.94
2019-05-02T21:34:07.360Z,72.75
2019-05-02T21:36:37.080Z,72.11
2019-05-02T21:39:11.752Z,72.27
2019-05-02T21:41:42.385Z,71.70
2019-05-02T21:44:13.638Z,71.78
2019-05-02T21:46:43.263Z,69.51
2019-05-02T21:49:14.436Z,67.47
2019-05-02T21:51:45.568Z,67.20
2019-05-02T21:54:19.449Z,67.56
2019-05-02T21:56:56.916Z,67.25
2019-05-02T21:59:26.376Z,66.99
2019-05-02T22:01:57.704Z,67.19
2019-05-02T22:04:27.164Z,67.68
2019-05-02T22:06:56.574Z,67.64
2019-05-02T22:09:27.758Z,67.24
2019-05-02T22:11:57.269Z,65.89
2019-05-02T22:14:26.786Z,65.54
2019-05-02T22:16:56.203Z,65.30
2019-05-02T22:19:26.195Z,65.32
2019-05-02T22:21:55.618Z,66.56
2019-05-02T22:24:25.089Z,66.79
2019-05-02T22:26:54.592Z,66.81
2019-05-02T22:29:24.242Z,67.57
2019-05-02T22:31:54.520Z,67.82
2019-05-02T22:34:24.223Z,68.30
2019-05-02T22:36:54.304Z,69.11
2019-05-02T22:39:43.920Z,67.14
2019-05-02T22:42:13.494Z,67.87
2019-05-02T22:44:42.940Z,67.42
2019-05-02T22:47:14.081Z,68.49
2019-05-02T22:49:45.149Z,68.44
2019-05-02T22:52:14.779Z,67.78
2019-05-02T22:54:44.851Z,67.39
2019-05-02T22:57:14.504Z,69.27
2019-05-02T22:59:44.107Z,69.18
2019-05-02T23:02:15.343Z,69.74
2019-05-02T23:04:44.806Z,69.95
2019-05-02T23:07:14.339Z,69.73
2019-05-02T23:09:43.873Z,70.25
2019-05-02T23:12:13.515Z,69.18
2019-05-02T23:14:43.060Z,69.59
2019-05-02T23:17:12.937Z,70.73
2019-05-02T23:19:42.595Z,69.63
2019-05-02T23:22:12.671Z,67.26
2019-05-02T23:25:02.753Z,68.05
2019-05-02T23:27:42.452Z,67.66
2019-05-02T23:30:14.284Z,68.19
2019-05-02T23:32:43.914Z,69.30
2019-05-02T23:35:16.577Z,69.72
2019-05-02T23:37:46.071Z,70.50
2019-05-02T23:40:16.438Z,70.81
2019-05-02T23:42:47.264Z,71.13
2019-05-02T23:45:16.932Z,70.83
2019-05-02T23:47:46.393Z,70.69
2019-05-02T23:50:16.004Z,69.69
2019-05-02T23:52:45.445Z,70.85
2019-05-02T23:55:15.036Z,74.52
2019-05-02T23:57:44.573Z,73.80
